Time;durP1;ratioP1;P1;durP2;ratioP2;P2;SDS_P1;SDS_P2;PMS_P1;PMS_P2;Temp;Humidity;BMP_temperature;BMP_pressure;BME280_temperature;BME280_humidity;BME280_pressure;Samples;Min_cycle;Max_cycle;Signal;HPM_P1;HPM_P2
2023/05/11 00:02:19;;;;;;;1.70;1.60;;;;;;;13.36;52.41;99613.81;10468625;28;20235;-69
2023/05/11 00:07:21;;;;;;;4.23;1.80;;;;;;;13.18;52.42;99617.06;10468911;28;20628;-70
2023/05/11 00:12:23;;;;;;;2.23;1.60;;;;;;;13.12;52.53;99615.19;10473809;28;20235;-69
2023/05/11 00:17:25;;;;;;;2.70;1.70;;;;;;;12.59;54.26;99615.94;10473639;28;20288;-69
2023/05/11 00:22:26;;;;;;;1.90;1.70;;;;;;;12.59;54.35;99623.13;10475566;28;20599;-70
2023/05/11 00:27:28;;;;;;;1.63;1.60;;;;;;;13.13;52.72;99632.13;10473003;28;20657;-69
2023/05/11 00:32:30;;;;;;;2.07;1.90;;;;;;;12.59;53.84;99626.66;10475292;28;20950;-70
2023/05/11 00:37:31;;;;;;;1.63;1.53;;;;;;;12.82;53.60;99638.91;10477304;28;20324;-70
2023/05/11 00:42:33;;;;;;;1.87;1.77;;;;;;;13.87;51.60;99628.44;10474761;28;20281;-69
2023/05/11 00:47:36;;;;;;;2.20;1.60;;;;;;;12.42;54.52;99619.94;10475397;28;20269;-69
2023/05/11 00:52:38;;;;;;;1.53;1.53;;;;;;;12.93;52.92;99625.72;10474847;28;20246;-70
2023/05/11 00:57:40;;;;;;;2.93;1.70;;;;;;;12.72;53.71;99629.41;10474617;28;21103;-70
2023/05/11 01:02:41;;;;;;;2.07;1.87;;;;;;;13.29;52.38;99631.78;10472215;28;20235;-70
2023/05/11 01:08:04;;;;;;;1.77;1.67;;;;;;;13.75;52.15;99636.31;10473636;28;20254;-69
2023/05/11 01:13:25;;;;;;;4.80;1.80;;;;;;;12.85;53.80;99638.50;10473232;28;20227;-70
2023/05/11 01:18:37;;;;;;;1.73;1.60;;;;;;;12.68;53.54;99638.03;10475091;28;20242;-70
2023/05/11 01:24:00;;;;;;;1.70;1.60;;;;;;;12.61;54.15;99635.34;10474933;28;20263;-70
2023/05/11 01:29:35;;;;;;;2.33;1.87;;;;;;;13.46;52.21;99627.66;10473287;28;21108;-70
2023/05/11 01:34:39;;;;;;;1.87;1.77;;;;;;;13.84;51.62;99645.81;10471892;28;20737;-70
2023/05/11 01:39:53;;;;;;;1.93;1.73;;;;;;;13.38;52.72;99652.06;10474075;28;20234;-70
2023/05/11 01:44:57;;;;;;;1.90;1.80;;;;;;;13.23;52.40;99638.78;10473773;28;20230;-69
2023/05/11 01:50:00;;;;;;;2.07;1.90;;;;;;;12.31;53.54;99618.69;10471463;28;20265;-70
2023/05/11 01:55:04;;;;;;;2.03;1.80;;;;;;;13.22;52.37;99634.41;10471091;28;20246;-70
2023/05/11 02:00:07;;;;;;;2.67;2.10;;;;;;;12.82;53.06;99646.97;10476803;28;20232;-70
2023/05/11 02:05:10;;;;;;;1.93;1.83;;;;;;;12.13;54.20;99622.72;10475907;28;20263;-70
2023/05/11 02:10:14;;;;;;;2.27;2.17;;;;;;;11.97;55.02;99615.81;10468597;28;20228;-70
2023/05/11 02:15:16;;;;;;;2.00;1.90;;;;;;;12.37;54.45;99631.31;10473535;28;20230;-70
2023/05/11 02:20:19;;;;;;;4.90;2.60;;;;;;;13.21;52.13;99632.78;10473130;28;20223;-70
2023/05/11 02:25:22;;;;;;;2.77;2.50;;;;;;;12.26;54.32;99643.41;10472368;28;20243;-70
2023/05/11 02:30:26;;;;;;;2.80;2.60;;;;;;;12.13;54.31;99636.16;10471238;28;20295;-70
2023/05/11 02:35:30;;;;;;;3.20;2.30;;;;;;;13.20;53.05;99658.00;10467261;28;20223;-70
2023/05/11 02:40:35;;;;;;;2.40;2.20;;;;;;;13.02;52.88;99660.44;10470742;28;20246;-70
2023/05/11 02:45:40;;;;;;;2.83;2.63;;;;;;;12.71;53.18;99648.38;10471646;28;20234;-70
2023/05/11 02:50:42;;;;;;;2.60;2.40;;;;;;;11.88;54.85;99627.75;10471512;28;20231;-70
2023/05/11 02:55:44;;;;;;;2.90;2.70;;;;;;;11.21;56.00;99554.06;10470929;28;20243;-70
2023/05/11 03:00:47;;;;;;;3.20;2.60;;;;;;;12.18;54.15;99646.25;10471644;28;20235;-70
2023/05/11 03:05:49;;;;;;;3.40;2.80;;;;;;;11.64;55.21;99626.34;10469765;28;20918;-70
2023/05/11 03:10:51;;;;;;;2.67;2.47;;;;;;;11.58;55.29;99625.25;10469547;28;20247;-70
2023/05/11 03:15:54;;;;;;;3.00;2.80;;;;;;;12.64;53.87;99648.38;10473946;28;20233;-70
2023/05/11 03:20:58;;;;;;;3.20;2.90;;;;;;;11.45;55.89;99631.31;10470738;28;20239;-70
2023/05/11 03:26:00;;;;;;;3.37;2.53;;;;;;;11.53;56.22;99656.34;10468252;28;20235;-70
2023/05/11 03:31:02;;;;;;;4.73;3.20;;;;;;;10.77;56.60;99581.91;10451575;22;20243;-39
2023/05/11 03:36:05;;;;;;;3.67;3.37;;;;;;;11.21;55.98;99631.75;10456136;28;20210;-40
2023/05/11 03:41:07;;;;;;;3.20;2.93;;;;;;;11.68;55.90;99643.69;10442318;28;20228;-39
2023/05/11 03:46:12;;;;;;;3.37;3.17;;;;;;;11.72;54.58;99647.63;10461046;28;20318;-39
2023/05/11 03:51:14;;;;;;;6.70;2.63;;;;;;;11.28;55.97;99642.50;10449480;28;20256;-40
2023/05/11 03:56:16;;;;;;;2.60;2.40;;;;;;;11.04;55.68;99604.41;10448479;28;20196;-41
2023/05/11 04:01:18;;;;;;;3.00;2.80;;;;;;;12.40;54.35;99657.75;10458666;28;20227;-40
2023/05/11 04:06:20;;;;;;;3.00;2.80;;;;;;;11.71;54.49;99650.50;10436934;28;20243;-39
2023/05/11 04:11:22;;;;;;;3.00;2.80;;;;;;;11.28;56.50;99654.06;10472520;28;20254;-39
2023/05/11 04:16:23;;;;;;;3.00;2.80;;;;;;;12.08;54.13;99668.09;10469210;28;20236;-42
2023/05/11 04:21:25;;;;;;;2.63;2.50;;;;;;;11.32;54.89;99643.78;10473802;28;20766;-39
2023/05/11 04:26:27;;;;;;;3.13;2.83;;;;;;;11.40;55.17;99649.00;10485136;22;20333;-37
2023/05/11 04:31:29;;;;;;;3.00;2.80;;;;;;;11.35;55.55;99660.28;10470035;28;20933;-35
2023/05/11 04:36:31;;;;;;;3.20;2.90;;;;;;;12.66;53.03;99691.13;10457875;28;20228;-37
2023/05/11 04:41:33;;;;;;;3.50;3.20;;;;;;;13.64;50.68;99698.78;10423379;28;20237;-36
2023/05/11 04:46:37;;;;;;;5.10;2.60;;;;;;;13.73;50.86;99713.66;10427240;28;20237;-36
2023/05/11 04:51:39;;;;;;;3.07;2.77;;;;;;;13.93;50.35;99713.66;10420975;28;20860;-36
2023/05/11 04:56:41;;;;;;;2.70;2.50;;;;;;;13.19;51.21;99693.94;10419273;28;20227;-35
2023/05/11 05:05:27;;;;;;;4.17;2.77;;;;;;;10.13;59.24;99685.00;10355322;28;20817;-71
2023/05/11 05:10:29;;;;;;;5.23;3.20;;;;;;;10.50;58.22;99712.69;10377132;28;20231;-72
2023/05/11 05:15:30;;;;;;;4.17;2.80;;;;;;;10.58;58.32;99719.75;10381366;28;20232;-71
2023/05/11 05:20:33;;;;;;;2.93;2.70;;;;;;;10.18;59.49;99698.66;10381996;28;20236;-71
2023/05/11 05:25:37;;;;;;;4.33;3.07;;;;;;;10.33;59.42;99718.22;10380545;28;21046;-71
2023/05/11 05:30:38;;;;;;;4.50;3.07;;;;;;;10.83;58.42;99739.06;10376862;28;20322;-72
2023/05/11 05:35:42;;;;;;;3.33;3.13;;;;;;;10.67;58.71;99738.22;10377881;28;20225;-70
2023/05/11 05:40:44;;;;;;;5.03;3.70;;;;;;;10.74;58.42;99734.81;10376728;28;20261;-70
2023/05/11 05:45:46;;;;;;;4.00;3.70;;;;;;;10.67;58.69;99740.06;10376904;28;20648;-71
2023/05/11 05:50:47;;;;;;;4.57;4.17;;;;;;;11.32;57.85;99759.81;10380085;28;20238;-72
2023/05/11 05:55:49;;;;;;;4.90;4.23;;;;;;;11.09;58.09;99759.16;10378615;28;20763;-73
2023/05/11 06:00:51;;;;;;;6.60;4.40;;;;;;;11.68;56.88;99777.72;10374447;28;20244;-70
2023/05/11 06:05:53;;;;;;;5.27;4.77;;;;;;;10.96;58.48;99747.25;10378283;28;20735;-70
2023/05/11 06:10:55;;;;;;;6.57;5.20;;;;;;;11.91;56.35;99792.75;10375011;28;20232;-69
2023/05/11 06:15:56;;;;;;;10.50;5.90;;;;;;;10.68;58.77;99747.91;10352039;28;20248;-68
2023/05/11 06:20:58;;;;;;;6.30;5.70;;;;;;;13.02;54.73;99829.66;10346932;28;20244;-71
2023/05/11 06:26:00;;;;;;;6.73;5.30;;;;;;;11.75;57.30;99783.97;10347595;28;20217;-69
2023/05/11 06:31:02;;;;;;;5.87;5.27;;;;;;;11.54;56.69;99770.53;10349366;28;20887;-69
2023/05/11 06:36:05;;;;;;;6.00;4.80;;;;;;;11.93;55.84;99774.63;10351167;28;20256;-68
2023/05/11 06:41:09;;;;;;;5.67;5.00;;;;;;;11.31;57.94;99782.25;10349837;28;20255;-69
2023/05/11 06:46:15;;;;;;;6.33;5.00;;;;;;;11.67;57.66;99784.09;10348207;28;20288;-72
2023/05/11 06:51:16;;;;;;;5.43;4.80;;;;;;;11.80;56.97;99794.94;10306198;28;20233;-71
2023/05/11 06:56:18;;;;;;;5.17;4.50;;;;;;;11.58;57.27;99769.97;10303957;28;20267;-69
2023/05/11 07:01:20;;;;;;;8.17;5.23;;;;;;;10.95;58.06;99748.28;10302693;28;20241;-69
2023/05/11 07:06:21;;;;;;;5.80;4.67;;;;;;;11.31;58.08;99792.16;10304275;28;20238;-71
2023/05/11 07:11:24;;;;;;;5.27;4.77;;;;;;;11.32;57.52;99786.59;10302174;28;20238;-71
2023/05/11 07:16:26;;;;;;;7.23;5.60;;;;;;;12.11;56.01;99811.69;10304050;28;20238;-69
2023/05/11 07:21:27;;;;;;;7.00;4.70;;;;;;;12.08;55.66;99817.44;10304630;28;21076;-70
2023/05/11 07:26:29;;;;;;;5.60;4.70;;;;;;;12.64;55.14;99855.06;10308602;28;20236;-72
2023/05/11 07:31:32;;;;;;;4.60;4.20;;;;;;;12.29;55.49;99830.00;10342930;28;20946;-70
2023/05/11 07:36:34;;;;;;;6.67;4.93;;;;;;;12.47;54.86;99846.50;10344499;28;20228;-70
2023/05/11 07:41:35;;;;;;;5.43;4.27;;;;;;;12.55;54.82;99835.59;10336195;28;20241;-70
2023/05/11 07:46:37;;;;;;;5.80;5.00;;;;;;;12.47;55.61;99845.63;10339641;28;20904;-70
2023/05/11 07:51:39;;;;;;;7.47;5.53;;;;;;;12.60;54.81;99861.03;10341188;28;20226;-71
2023/05/11 07:56:41;;;;;;;6.60;5.43;;;;;;;12.64;54.85;99846.19;10342592;28;20255;-72
2023/05/11 08:01:42;;;;;;;5.93;5.33;;;;;;;12.98;54.51;99866.03;10341227;28;20241;-70
2023/05/11 08:06:44;;;;;;;6.07;5.13;;;;;;;12.03;55.63;99801.09;10342233;28;20764;-71
2023/05/11 08:11:46;;;;;;;5.50;5.00;;;;;;;13.17;54.71;99873.34;10339391;28;20241;-70
2023/05/11 08:16:48;;;;;;;5.50;5.00;;;;;;;12.60;53.91;99824.25;10336655;28;20233;-71
2023/05/11 08:21:50;;;;;;;5.57;4.80;;;;;;;13.53;53.21;99877.66;10343963;28;20229;-70
2023/05/11 08:26:51;;;;;;;6.40;5.37;;;;;;;13.09;53.92;99852.00;10340370;28;20236;-70
2023/05/11 08:31:53;;;;;;;5.57;4.67;;;;;;;13.10;53.81;99842.94;10340273;28;20229;-70
2023/05/11 08:36:55;;;;;;;8.07;5.60;;;;;;;12.94;54.16;99841.41;10334990;28;20225;-71
2023/05/11 08:41:58;;;;;;;6.17;4.80;;;;;;;13.62;52.63;99862.19;10336017;28;20589;-70
2023/05/11 08:47:00;;;;;;;5.50;4.90;;;;;;;13.35;52.19;99823.63;10338769;28;20233;-70
2023/05/11 08:52:22;;;;;;;5.07;4.40;;;;;;;13.39;53.05;99819.50;10335372;28;20238;-70
2023/05/11 08:57:28;;;;;;;6.57;4.60;;;;;;;13.74;52.41;99844.41;10341913;28;20226;-70
2023/05/11 09:02:30;;;;;;;5.63;4.60;;;;;;;12.33;54.27;99791.03;10340022;28;20271;-70
2023/05/11 09:07:37;;;;;;;5.47;4.50;;;;;;;13.51;52.75;99825.94;10334148;28;20237;-71
2023/05/11 09:12:39;;;;;;;5.10;4.57;;;;;;;13.74;52.08;99830.13;10340785;28;20225;-70
2023/05/11 09:17:41;;;;;;;4.93;4.27;;;;;;;13.38;52.81;99816.00;10334286;28;20237;-70
2023/05/11 09:22:44;;;;;;;5.93;4.60;;;;;;;13.23;53.00;99797.31;10338846;28;20326;-70
2023/05/11 09:27:47;;;;;;;4.93;4.43;;;;;;;13.01;53.54;99791.25;10335135;28;20241;-71
2023/05/11 09:32:51;;;;;;;6.10;4.33;;;;;;;13.78;52.79;99826.00;10341155;28;20238;-70
2023/05/11 09:38:09;;;;;;;7.73;5.10;;;;;;;13.64;52.51;99800.94;10340529;28;20313;-70
2023/05/11 09:43:30;;;;;;;5.13;4.60;;;;;;;14.27;51.98;99845.50;10345609;28;20236;-70
2023/05/11 09:48:31;;;;;;;5.93;4.90;;;;;;;13.57;52.80;99817.06;10338207;28;20237;-70
2023/05/11 09:53:43;;;;;;;6.57;5.43;;;;;;;13.12;53.47;99808.63;10348134;28;20758;-70
2023/05/11 09:58:53;;;;;;;5.20;4.50;;;;;;;13.31;53.26;99809.75;10339117;28;20356;-71
2023/05/11 10:03:55;;;;;;;5.33;4.77;;;;;;;13.23;52.08;99777.69;10344364;28;20292;-69
2023/05/11 10:09:16;;;;;;;6.27;4.47;;;;;;;12.87;52.55;99776.06;10348897;28;20244;-69
2023/05/11 10:14:18;;;;;;;5.30;4.60;;;;;;;13.53;51.23;99797.00;10344864;28;20233;-69
2023/05/11 10:19:20;;;;;;;6.13;5.27;;;;;;;13.41;51.80;99777.13;10348720;28;20233;-69
2023/05/11 10:24:22;;;;;;;6.70;4.97;;;;;;;14.99;50.02;99822.22;10345511;28;20245;-69
2023/05/11 10:29:24;;;;;;;5.33;4.80;;;;;;;14.77;48.47;99762.38;10346013;28;20237;-69
2023/05/11 10:34:28;;;;;;;6.97;5.10;;;;;;;13.05;51.47;99767.47;10343158;28;20725;-69
2023/05/11 10:39:30;;;;;;;6.20;5.03;;;;;;;14.64;48.98;99725.53;10348494;28;20391;-68
2023/05/11 10:44:50;;;;;;;6.87;5.67;;;;;;;13.30;51.32;99783.94;10343662;28;20234;-69
2023/05/11 10:50:11;;;;;;;5.40;4.90;;;;;;;14.74;49.07;99760.09;10349497;28;20252;-68
2023/05/11 10:55:27;;;;;;;5.87;4.90;;;;;;;14.86;48.70;99761.09;10344587;28;20293;-68
2023/05/11 11:06:28;;;;;;;7.67;4.80;;;;;;;11.07;55.33;99697.75;10520545;27;2080957;-69
2023/05/11 11:11:35;;;;;;;7.13;5.20;;;;;;;12.31;53.02;99737.56;10460667;28;20592;-68
2023/05/11 11:16:37;;;;;;;6.37;4.67;;;;;;;13.08;52.19;99742.91;10422967;28;20236;-68
2023/05/11 11:21:41;;;;;;;6.73;5.80;;;;;;;13.12;52.34;99754.91;10467570;28;20737;-68
2023/05/11 11:26:49;;;;;;;7.43;5.50;;;;;;;13.79;51.19;99734.34;10465375;28;20293;-69
2023/05/11 11:31:51;;;;;;;6.73;5.37;;;;;;;12.07;52.54;99749.56;10474059;28;20222;-69
2023/05/11 11:37:05;;;;;;;6.90;5.10;;;;;;;12.27;52.04;99741.66;10470989;28;20616;-69
2023/05/11 11:42:12;;;;;;;6.37;5.30;;;;;;;12.32;51.74;99749.13;10483942;28;20224;-69
2023/05/11 11:47:22;;;;;;;11.30;4.80;;;;;;;13.27;50.09;99709.88;10474730;28;20330;-68
2023/05/11 11:52:26;;;;;;;5.60;4.70;;;;;;;12.17;50.95;99704.44;10481255;28;20231;-68
2023/05/11 11:57:31;;;;;;;7.33;4.83;;;;;;;14.30;48.91;99710.53;10477113;28;20239;-68
2023/05/11 12:02:33;;;;;;;5.97;4.10;;;;;;;13.84;48.95;99731.88;10477150;28;20310;-68
2023/05/11 12:07:41;;;;;;;4.80;4.07;;;;;;;15.07;48.38;99733.03;10480111;28;20235;-68
2023/05/11 12:12:47;;;;;;;5.37;4.20;;;;;;;14.01;48.63;99673.09;10468613;28;20258;-68
2023/05/11 12:17:49;;;;;;;6.17;5.10;;;;;;;14.56;48.47;99688.06;10450302;28;20239;-68
2023/05/11 12:22:52;;;;;;;6.43;4.80;;;;;;;14.93;47.71;99701.81;10431688;28;20347;-68
2023/05/11 12:28:01;;;;;;;5.27;4.77;;;;;;;14.97;48.86;99686.06;10443616;28;20261;-69
2023/05/11 12:33:06;;;;;;;6.83;4.90;;;;;;;14.70;48.32;99684.28;10440208;28;20262;-69
2023/05/11 12:38:09;;;;;;;5.73;4.60;;;;;;;14.31;49.05;99667.25;10449702;28;20334;-69
2023/05/11 12:43:16;;;;;;;5.60;3.93;;;;;;;13.94;48.81;99676.84;10448651;28;20238;-69
2023/05/11 12:48:18;;;;;;;5.60;4.10;;;;;;;15.76;45.99;99698.16;10441233;28;20742;-69
2023/05/11 12:53:21;;;;;;;5.33;4.50;;;;;;;15.92;46.41;99647.38;10448054;28;20232;-69
2023/05/11 12:58:23;;;;;;;4.53;3.40;;;;;;;14.04;46.95;99667.28;10434361;28;20234;-69
2023/05/11 13:03:26;;;;;;;3.77;3.43;;;;;;;14.55;46.36;99641.47;10444783;28;20739;-69
2023/05/11 13:08:28;;;;;;;5.37;3.50;;;;;;;14.24;47.14;99636.00;10443113;28;20224;-68
2023/05/11 13:13:29;;;;;;;5.13;4.17;;;;;;;16.15;46.21;99619.75;10429155;28;20841;-68
2023/05/11 13:18:31;;;;;;;5.13;3.30;;;;;;;15.92;45.75;99596.94;10442798;28;20245;-69
2023/05/11 13:23:33;;;;;;;3.80;3.30;;;;;;;14.96;46.37;99612.47;10439856;28;20395;-68
2023/05/11 13:28:35;;;;;;;4.93;4.43;;;;;;;15.61;47.75;99584.41;10429648;28;20231;-71
2023/05/11 13:33:36;;;;;;;4.53;4.03;;;;;;;15.98;46.31;99565.53;10431890;28;20232;-69
2023/05/11 13:38:38;;;;;;;4.53;4.00;;;;;;;15.28;45.98;99551.25;10434645;28;20731;-69
2023/05/11 13:43:39;;;;;;;5.90;4.30;;;;;;;15.84;47.00;99572.94;10431644;28;20224;-68
2023/05/11 13:48:42;;;;;;;6.40;4.63;;;;;;;15.40;47.70;99528.97;10424919;28;20241;-69
2023/05/11 13:53:43;;;;;;;5.67;4.23;;;;;;;16.02;46.68;99556.75;10435761;28;20221;-69
2023/05/11 13:58:45;;;;;;;6.73;4.93;;;;;;;15.95;46.90;99529.03;10433344;28;20232;-69
2023/05/11 14:03:51;;;;;;;5.07;4.40;;;;;;;15.73;46.94;99539.44;10430270;28;20911;-70
2023/05/11 14:08:53;;;;;;;5.87;4.70;;;;;;;16.46;46.79;99531.50;10438162;28;20239;-72
2023/05/11 14:13:55;;;;;;;4.90;3.93;;;;;;;14.16;49.03;99518.69;10438551;28;20228;-70
2023/05/11 14:18:57;;;;;;;6.17;4.80;;;;;;;15.93;47.87;99481.75;10439354;28;20680;-70
2023/05/11 14:23:58;;;;;;;4.87;4.33;;;;;;;14.81;49.09;99526.53;10435249;28;20613;-69
2023/05/11 14:29:12;;;;;;;5.43;3.67;;;;;;;16.45;46.33;99492.91;10440021;28;20242;-68
2023/05/11 14:34:15;;;;;;;5.17;3.83;;;;;;;16.22;45.90;99474.69;10436555;28;20228;-68
2023/05/11 14:39:16;;;;;;;8.57;3.53;;;;;;;16.68;45.69;99496.69;10421083;28;20237;-70
2023/05/11 14:44:18;;;;;;;4.27;3.40;;;;;;;15.81;46.82;99514.06;10422156;28;20724;-70
2023/05/11 14:49:19;;;;;;;5.40;3.50;;;;;;;15.70;46.84;99505.66;10422840;28;20231;-70
2023/05/11 14:54:21;;;;;;;4.10;3.77;;;;;;;15.60;45.88;99485.66;10393556;28;20232;-70
2023/05/11 14:59:23;;;;;;;6.67;3.90;;;;;;;16.20;46.23;99496.53;10417937;28;20227;-70
2023/05/11 15:04:25;;;;;;;4.83;3.93;;;;;;;17.26;44.57;99500.50;10426328;28;20332;-70
2023/05/11 15:09:27;;;;;;;4.23;3.07;;;;;;;16.67;45.37;99474.25;10428853;28;20872;-70
2023/05/11 15:14:29;;;;;;;3.97;2.90;;;;;;;16.30;45.25;99458.22;10427181;28;20592;-70
2023/05/11 15:19:31;;;;;;;3.33;2.97;;;;;;;16.27;46.14;99461.38;10431904;28;20229;-71
2023/05/11 15:24:32;;;;;;;3.27;2.63;;;;;;;16.78;44.70;99470.72;10428545;28;20238;-70
2023/05/11 15:29:34;;;;;;;4.60;2.93;;;;;;;16.53;45.26;99462.00;10434381;22;20322;-41
2023/05/11 15:34:36;;;;;;;4.30;2.40;;;;;;;16.44;44.84;99477.72;10355262;28;20972;-42
2023/05/11 15:39:55;;;;;;;2.50;2.30;;;;;;;16.52;44.73;99488.19;10396938;28;20231;-41
2023/05/11 15:44:57;;;;;;;2.93;2.63;;;;;;;16.38;44.71;99465.13;10402954;22;20796;-38
2023/05/11 15:49:59;;;;;;;3.30;2.70;;;;;;;15.63;45.16;99479.81;10340053;28;20241;-38
2023/05/11 15:55:01;;;;;;;5.13;2.50;;;;;;;15.56;45.14;99497.97;10344680;28;20233;-37
2023/05/11 16:00:03;;;;;;;2.77;2.50;;;;;;;15.88;44.78;99483.25;10346992;28;20238;-37
2023/05/11 16:05:05;;;;;;;2.40;2.20;;;;;;;15.33;44.82;99465.19;10352877;28;20713;-37
2023/05/11 16:10:07;;;;;;;2.53;2.20;;;;;;;15.89;44.17;99470.56;10351472;28;20236;-37
2023/05/11 16:15:09;;;;;;;4.03;2.80;;;;;;;16.48;43.84;99470.81;10353160;28;20695;-37
2023/05/11 16:20:11;;;;;;;2.23;2.00;;;;;;;15.82;43.79;99467.13;10350071;28;20225;-37
2023/05/11 16:25:13;;;;;;;2.33;2.13;;;;;;;17.44;42.61;99461.69;10352177;28;20243;-37
2023/05/11 16:30:15;;;;;;;2.67;2.37;;;;;;;15.82;43.79;99446.38;10350252;28;20713;-37
2023/05/11 16:35:25;;;;;;;3.03;2.10;;;;;;;16.67;42.93;99416.69;10349995;28;20677;-38
2023/05/11 16:40:27;;;;;;;6.53;2.00;;;;;;;16.19;43.88;99443.56;10352645;28;20303;-37
2023/05/11 16:45:29;;;;;;;2.50;2.30;;;;;;;15.11;44.47;99372.31;10354657;28;20252;-38
2023/05/11 16:50:31;;;;;;;4.93;2.57;;;;;;;15.04;44.98;99393.97;10349970;28;20229;-37
2023/05/11 16:55:32;;;;;;;3.17;2.90;;;;;;;15.84;44.51;99454.22;10354112;28;20344;-37
2023/05/11 17:00:35;;;;;;;2.30;2.10;;;;;;;15.95;44.33;99423.78;10352963;28;20240;-37
2023/05/11 17:05:36;;;;;;;2.00;1.90;;;;;;;15.57;44.82;99461.84;10351123;28;20239;-38
2023/05/11 17:10:39;;;;;;;2.13;1.90;;;;;;;16.72;43.92;99424.91;10348941;28;20237;-37
2023/05/11 17:15:41;;;;;;;2.93;2.20;;;;;;;16.43;43.54;99424.75;10352601;28;20230;-37
2023/05/11 17:20:42;;;;;;;2.77;2.53;;;;;;;16.37;43.72;99431.13;10351859;28;20237;-37
2023/05/11 17:25:44;;;;;;;2.40;2.20;;;;;;;15.24;44.53;99444.94;10348483;28;20236;-37
2023/05/11 17:30:51;;;;;;;2.60;2.40;;;;;;;15.59;45.25;99471.34;10352335;28;20588;-37
2023/05/11 17:35:53;;;;;;;2.30;2.20;;;;;;;16.10;44.21;99434.16;10350869;28;20229;-38
2023/05/11 17:40:57;;;;;;;3.70;2.33;;;;;;;14.70;45.95;99449.16;10347536;28;20233;-37
2023/05/11 17:45:59;;;;;;;2.60;2.10;;;;;;;14.84;45.55;99456.09;10347275;28;20764;-37
2023/05/11 17:51:01;;;;;;;2.90;2.20;;;;;;;15.54;44.84;99455.00;10346977;28;20226;-37
2023/05/11 17:56:03;;;;;;;2.40;2.20;;;;;;;14.78;45.89;99460.50;10351570;28;20237;-37
2023/05/11 18:01:09;;;;;;;2.90;2.60;;;;;;;16.66;43.81;99417.78;10347714;28;20213;-37
2023/05/11 18:06:11;;;;;;;3.77;2.80;;;;;;;15.48;45.50;99464.78;10348422;28;20233;-37
2023/05/11 18:11:13;;;;;;;4.20;2.53;;;;;;;15.55;44.98;99478.22;10346499;28;20213;-37
2023/05/11 18:16:16;;;;;;;3.07;2.80;;;;;;;13.62;48.56;99405.94;10344147;28;20348;-36
2023/05/11 18:21:18;;;;;;;2.87;2.30;;;;;;;13.83;48.98;99447.84;10348860;28;20295;-37
2023/05/11 18:26:21;;;;;;;3.80;2.50;;;;;;;13.76;49.28;99452.41;10349135;28;20252;-37
2023/05/11 18:31:22;;;;;;;2.30;2.10;;;;;;;12.98;51.33;99420.16;10345742;28;20241;-37
2023/05/11 18:36:25;;;;;;;2.30;2.10;;;;;;;11.98;52.16;99343.16;10345650;28;20241;-37
2023/05/11 18:41:27;;;;;;;1.70;1.60;;;;;;;11.32;53.38;99309.78;10346663;28;20236;-37
2023/05/11 18:46:29;;;;;;;1.70;1.60;;;;;;;12.29;53.24;99460.59;10344542;28;21038;-37
2023/05/11 18:51:30;;;;;;;1.90;1.80;;;;;;;12.00;54.11;99453.72;10348102;28;20233;-37
2023/05/11 18:56:32;;;;;;;2.73;1.80;;;;;;;12.71;53.29;99476.56;10342856;28;20237;-37
2023/05/11 19:01:34;;;;;;;4.33;2.50;;;;;;;12.05;55.49;99456.63;10346715;28;20232;-38
2023/05/11 19:06:48;;;;;;;2.70;2.50;;;;;;;12.95;54.27;99468.91;10346828;28;20641;-38
2023/05/11 19:11:49;;;;;;;4.13;2.73;;;;;;;12.31;56.52;99481.84;10347165;28;20283;-37
2023/05/11 19:16:51;;;;;;;4.60;3.57;;;;;;;12.19;56.12;99478.94;10347314;28;20245;-37
2023/05/11 19:21:53;;;;;;;4.87;3.50;;;;;;;12.79;55.27;99476.38;10342315;28;20236;-38
2023/05/11 19:26:55;;;;;;;3.63;3.10;;;;;;;11.63;57.62;99423.69;10352291;28;20267;-38
2023/05/11 19:32:08;;;;;;;5.13;4.10;;;;;;;12.87;55.69;99489.59;10355707;28;20210;-38
2023/05/11 19:37:10;;;;;;;5.17;4.30;;;;;;;13.12;55.58;99515.81;10351481;28;20232;-38
2023/05/11 19:42:11;;;;;;;6.57;4.63;;;;;;;13.26;55.61;99506.72;10356158;28;20256;-37
2023/05/11 19:47:13;;;;;;;6.93;5.13;;;;;;;12.25;57.91;99507.63;10351479;28;20251;-38
2023/05/11 19:52:15;;;;;;;5.47;4.97;;;;;;;12.87;57.60;99520.97;10353394;28;20237;-37
2023/05/11 19:57:17;;;;;;;5.80;4.73;;;;;;;13.02;56.79;99515.41;10349806;28;20248;-37
2023/05/11 20:02:20;;;;;;;5.23;4.50;;;;;;;13.14;55.73;99526.34;10355651;28;20237;-37
2023/05/11 20:07:22;;;;;;;4.73;4.13;;;;;;;13.08;55.59;99525.31;10352493;28;20276;-38
2023/05/11 20:12:24;;;;;;;5.93;4.80;;;;;;;12.93;55.88;99547.00;10353294;28;20683;-38
2023/05/11 20:17:26;;;;;;;5.20;4.13;;;;;;;12.99;56.20;99542.66;10346541;28;20890;-38
2023/05/11 20:22:28;;;;;;;4.97;4.40;;;;;;;12.80;56.06;99563.09;10348923;28;20706;-38
2023/05/11 20:27:29;;;;;;;4.47;3.53;;;;;;;12.91;55.70;99567.88;10349413;28;21202;-38
2023/05/11 20:32:31;;;;;;;4.77;4.27;;;;;;;13.64;54.58;99526.72;10353251;28;20226;-38
2023/05/11 20:37:33;;;;;;;5.30;4.13;;;;;;;13.25;55.37;99544.53;10346919;28;20264;-38
2023/05/11 20:42:37;;;;;;;4.67;3.90;;;;;;;13.47;55.27;99547.84;10353837;28;20234;-37
2023/05/11 20:47:38;;;;;;;6.07;4.50;;;;;;;13.45;55.30;99541.84;10351632;28;20240;-38
2023/05/11 20:52:40;;;;;;;6.80;4.93;;;;;;;12.33;57.51;99530.75;10351247;28;20240;-38
2023/05/11 20:57:42;;;;;;;6.40;4.77;;;;;;;12.90;57.98;99548.22;10351661;28;20244;-38
2023/05/11 21:02:44;;;;;;;4.80;4.40;;;;;;;12.41;58.28;99548.53;10349999;28;20758;-38
2023/05/11 21:07:46;;;;;;;4.83;4.23;;;;;;;12.82;57.83;99564.56;10350839;28;20243;-38
2023/05/11 21:12:48;;;;;;;5.47;4.20;;;;;;;11.84;58.67;99527.28;10348108;28;20216;-38
2023/05/11 21:17:50;;;;;;;6.20;4.20;;;;;;;12.05;58.12;99539.75;10351862;28;20225;-37
2023/05/11 21:22:52;;;;;;;4.73;4.13;;;;;;;12.14;57.76;99556.50;10348910;28;20238;-38
2023/05/11 21:27:54;;;;;;;6.07;3.83;;;;;;;14.16;54.92;99540.22;10351801;28;20238;-38
2023/05/11 21:32:55;;;;;;;4.53;4.10;;;;;;;11.57;59.94;99515.56;10349466;28;20347;-38
2023/05/11 21:37:57;;;;;;;6.37;4.57;;;;;;;12.86;57.38;99573.84;10348227;28;20714;-38
2023/05/11 21:42:59;;;;;;;4.53;4.07;;;;;;;12.29;58.95;99567.09;10352667;28;20244;-38
2023/05/11 21:48:01;;;;;;;5.30;4.80;;;;;;;11.80;59.72;99572.41;10349175;28;20558;-38
2023/05/11 21:53:03;;;;;;;5.67;5.07;;;;;;;11.67;59.40;99542.84;10349613;28;20345;-39
2023/05/11 21:58:05;;;;;;;6.70;5.57;;;;;;;11.50;60.44;99536.94;10351077;28;20229;-38
2023/05/11 22:03:07;;;;;;;7.70;5.80;;;;;;;11.83;59.93;99573.03;10350491;28;20993;-38
2023/05/11 22:08:09;;;;;;;7.37;6.50;;;;;;;12.04;59.82;99591.72;10347185;28;20232;-39
2023/05/11 22:13:16;;;;;;;9.03;5.97;;;;;;;12.75;58.54;99552.97;10347834;28;20213;-39
2023/05/11 22:18:18;;;;;;;8.47;6.80;;;;;;;11.40;60.58;99550.69;10348960;28;20324;-39
2023/05/11 22:23:20;;;;;;;8.37;7.17;;;;;;;11.98;60.75;99597.91;10346921;28;20233;-38
2023/05/11 22:28:22;;;;;;;9.13;7.67;;;;;;;12.13;59.83;99587.88;10345026;28;20233;-38
2023/05/11 22:33:23;;;;;;;9.57;8.50;;;;;;;11.57;60.78;99585.22;10349177;28;20237;-39
2023/05/11 22:38:25;;;;;;;9.73;8.33;;;;;;;12.82;58.89;99583.38;10346518;28;20261;-38
2023/05/11 22:43:27;;;;;;;12.43;8.97;;;;;;;13.32;57.97;99592.94;10344729;28;20202;-38
2023/05/11 22:48:29;;;;;;;10.47;8.93;;;;;;;12.91;58.75;99603.59;10345792;28;20242;-39
2023/05/11 22:53:31;;;;;;;10.93;8.50;;;;;;;12.09;59.05;99586.59;10348819;28;20734;-38
2023/05/11 22:58:33;;;;;;;11.27;9.50;;;;;;;12.65;58.97;99616.97;10343440;28;20229;-39
2023/05/11 23:03:34;;;;;;;11.03;9.60;;;;;;;11.89;60.37;99624.03;10346114;28;20696;-39
2023/05/11 23:08:36;;;;;;;10.93;8.87;;;;;;;12.52;59.74;99621.28;10346758;28;20241;-39
2023/05/11 23:13:38;;;;;;;12.10;9.03;;;;;;;13.05;57.96;99617.06;10348682;28;20229;-38
2023/05/11 23:18:43;;;;;;;11.93;9.90;;;;;;;12.53;57.92;99604.13;10343987;28;20330;-39
2023/05/11 23:23:45;;;;;;;11.10;9.83;;;;;;;11.54;60.04;99567.72;10348414;28;20260;-39
2023/05/11 23:28:46;;;;;;;11.77;9.90;;;;;;;13.24;57.77;99602.78;10346581;28;20698;-38
2023/05/11 23:33:48;;;;;;;12.70;10.17;;;;;;;11.49;60.56;99599.63;10341290;28;20612;-38
2023/05/11 23:38:50;;;;;;;12.33;9.63;;;;;;;13.16;58.20;99616.47;10347457;28;20873;-38